HFY24 ZUUU-ROAH
Flight info
| Callsign | HFY24 |
|---|---|
| Flight time | N/A |
| Altitude | 39100 |
| Route | UBRAB B213 WHA R343 PK W116 JTN G327 LAMEN/N0484F390 A593 SADLI Y590 BEDAR |
| Aircraft | A343/H-SDE2E3FGHIJ4J5M1RWXY/LB1D1 |
Departure
| Time | N/A |
|---|---|
| Airport | Chengdu Shuangliu International Airport (ZUUU) |
Arrival
| Time | 2026-04-18 06:53 |
|---|---|
| Airport | Naha International Airport (ROAH) |
| Time | Latitude | Longitude | Altitude | Speed | Heading |
|---|---|---|---|---|---|
| 2026-04-18 06:18 | 28.89101 | 128.13686 | 28899 ft | 372 kts | 192° |
| 2026-04-18 06:19 | 28.83966 | 128.13042 | 28897 ft | 370 kts | 192° |
| 2026-04-18 06:19 | 28.78857 | 128.12397 | 28890 ft | 368 kts | 192° |
| 2026-04-18 06:20 | 28.73804 | 128.11758 | 28897 ft | 366 kts | 192° |
| 2026-04-18 06:20 | 28.68750 | 128.11117 | 28904 ft | 365 kts | 192° |
| 2026-04-18 06:21 | 28.63705 | 128.10477 | 28907 ft | 366 kts | 192° |
| 2026-04-18 06:21 | 28.58600 | 128.09829 | 28889 ft | 370 kts | 192° |
| 2026-04-18 06:22 | 28.53498 | 128.09184 | 28893 ft | 368 kts | 192° |
| 2026-04-18 06:22 | 28.48417 | 128.08542 | 28897 ft | 366 kts | 192° |
| 2026-04-18 06:23 | 28.43365 | 128.07903 | 28899 ft | 365 kts | 192° |
| 2026-04-18 06:23 | 28.38355 | 128.07271 | 28883 ft | 364 kts | 192° |
| 2026-04-18 06:24 | 28.33325 | 128.06637 | 28898 ft | 362 kts | 192° |
| 2026-04-18 06:24 | 28.28321 | 128.06006 | 28895 ft | 361 kts | 192° |
| 2026-04-18 06:25 | 28.23329 | 128.05378 | 28897 ft | 360 kts | 192° |
| 2026-04-18 06:25 | 28.18342 | 128.04751 | 28897 ft | 360 kts | 192° |
| 2026-04-18 06:26 | 28.13376 | 128.04127 | 28912 ft | 358 kts | 192° |
| 2026-04-18 06:26 | 28.08416 | 128.03505 | 28916 ft | 358 kts | 192° |
| 2026-04-18 06:27 | 28.03494 | 128.02887 | 28908 ft | 358 kts | 192° |
| 2026-04-18 06:27 | 27.98529 | 128.02265 | 28911 ft | 357 kts | 192° |
| 2026-04-18 06:28 | 27.93591 | 128.01647 | 28912 ft | 357 kts | 192° |
| 2026-04-18 06:28 | 27.88644 | 128.01028 | 28916 ft | 357 kts | 192° |
| 2026-04-18 06:29 | 27.83707 | 128.00410 | 28915 ft | 357 kts | 192° |
| 2026-04-18 06:29 | 27.78769 | 127.99794 | 28917 ft | 357 kts | 192° |
| 2026-04-18 06:30 | 27.73857 | 127.99180 | 28927 ft | 357 kts | 192° |
| 2026-04-18 06:30 | 27.68933 | 127.98567 | 28916 ft | 356 kts | 192° |
| 2026-04-18 06:31 | 27.64001 | 127.97952 | 28918 ft | 356 kts | 192° |
| 2026-04-18 06:31 | 27.59071 | 127.97338 | 28918 ft | 356 kts | 192° |
| 2026-04-18 06:32 | 27.54144 | 127.96726 | 28910 ft | 356 kts | 192° |
| 2026-04-18 06:32 | 27.49213 | 127.96113 | 28916 ft | 356 kts | 192° |
| 2026-04-18 06:33 | 27.44286 | 127.95502 | 28918 ft | 356 kts | 192° |
| 2026-04-18 06:33 | 27.39365 | 127.94892 | 28921 ft | 356 kts | 192° |
| 2026-04-18 06:34 | 27.34432 | 127.94279 | 28924 ft | 356 kts | 192° |
| 2026-04-18 06:34 | 27.29529 | 127.93676 | 28679 ft | 357 kts | 194° |
| 2026-04-18 06:34 | 27.27046 | 127.93368 | 28003 ft | 364 kts | 193° |
| 2026-04-18 06:35 | 27.24480 | 127.93028 | 27531 ft | 377 kts | 191° |
| 2026-04-18 06:35 | 27.21833 | 127.92695 | 27143 ft | 387 kts | 191° |
| 2026-04-18 06:35 | 27.19147 | 127.92367 | 26513 ft | 390 kts | 192° |
| 2026-04-18 06:35 | 27.16418 | 127.92019 | 25885 ft | 399 kts | 191° |
| 2026-04-18 06:36 | 27.13656 | 127.91662 | 25419 ft | 410 kts | 190° |
| 2026-04-18 06:36 | 27.10751 | 127.91296 | 24947 ft | 419 kts | 189° |
| 2026-04-18 06:36 | 27.07861 | 127.90943 | 24250 ft | 417 kts | 191° |
| 2026-04-18 06:36 | 27.04985 | 127.90588 | 23585 ft | 415 kts | 191° |
| 2026-04-18 06:37 | 27.02124 | 127.90251 | 22886 ft | 412 kts | 188° |
| 2026-04-18 06:37 | 26.99251 | 127.90168 | 22180 ft | 413 kts | 184° |
| 2026-04-18 06:37 | 26.96383 | 127.90229 | 21568 ft | 411 kts | 183° |
| 2026-04-18 06:37 | 26.93527 | 127.90314 | 20974 ft | 409 kts | 182° |
| 2026-04-18 06:38 | 26.90686 | 127.90402 | 20383 ft | 408 kts | 182° |
| 2026-04-18 06:38 | 26.87854 | 127.90490 | 19804 ft | 405 kts | 182° |
| 2026-04-18 06:38 | 26.85068 | 127.90578 | 19224 ft | 403 kts | 182° |
| 2026-04-18 06:38 | 26.82275 | 127.90665 | 18638 ft | 401 kts | 182° |
| 2026-04-18 06:39 | 26.79498 | 127.90750 | 18038 ft | 398 kts | 182° |
| 2026-04-18 06:39 | 26.76737 | 127.90832 | 17405 ft | 395 kts | 183° |
| 2026-04-18 06:39 | 26.73997 | 127.90912 | 16830 ft | 392 kts | 182° |
| 2026-04-18 06:39 | 26.71284 | 127.90991 | 16258 ft | 389 kts | 182° |
| 2026-04-18 06:40 | 26.68582 | 127.91071 | 15682 ft | 386 kts | 182° |
| 2026-04-18 06:40 | 26.65900 | 127.91153 | 15122 ft | 383 kts | 182° |
| 2026-04-18 06:40 | 26.63245 | 127.91233 | 14565 ft | 380 kts | 182° |
| 2026-04-18 06:40 | 26.60616 | 127.91312 | 13996 ft | 377 kts | 182° |
| 2026-04-18 06:41 | 26.57994 | 127.91389 | 13414 ft | 375 kts | 182° |
| 2026-04-18 06:41 | 26.55401 | 127.91468 | 12843 ft | 372 kts | 182° |
| 2026-04-18 06:41 | 26.52816 | 127.91546 | 12265 ft | 369 kts | 182° |
| 2026-04-18 06:41 | 26.50265 | 127.91622 | 11682 ft | 367 kts | 183° |
| 2026-04-18 06:42 | 26.47701 | 127.91688 | 11204 ft | 369 kts | 182° |
| 2026-04-18 06:42 | 26.45180 | 127.91770 | 11018 ft | 353 kts | 182° |
| 2026-04-18 06:42 | 26.42792 | 127.91854 | 10992 ft | 334 kts | 182° |
| 2026-04-18 06:42 | 26.40523 | 127.91894 | 10995 ft | 319 kts | 187° |
| 2026-04-18 06:43 | 26.38417 | 127.91450 | 10968 ft | 310 kts | 203° |
| 2026-04-18 06:43 | 26.36401 | 127.90537 | 10727 ft | 305 kts | 208° |
| 2026-04-18 06:43 | 26.34465 | 127.89556 | 10200 ft | 306 kts | 209° |
| 2026-04-18 06:43 | 26.32547 | 127.88563 | 9758 ft | 303 kts | 210° |
| 2026-04-18 06:44 | 26.30682 | 127.87601 | 9532 ft | 294 kts | 210° |
| 2026-04-18 06:44 | 26.28847 | 127.86658 | 9324 ft | 288 kts | 209° |
| 2026-04-18 06:44 | 26.27038 | 127.85731 | 9010 ft | 283 kts | 209° |
| 2026-04-18 06:44 | 26.25256 | 127.84822 | 8528 ft | 278 kts | 210° |
| 2026-04-18 06:45 | 26.23506 | 127.83929 | 7836 ft | 275 kts | 209° |
| 2026-04-18 06:45 | 26.21775 | 127.83047 | 7018 ft | 273 kts | 209° |
| 2026-04-18 06:45 | 26.20083 | 127.82186 | 6541 ft | 263 kts | 209° |
| 2026-04-18 06:45 | 26.18422 | 127.81307 | 6141 ft | 267 kts | 207° |
| 2026-04-18 06:46 | 26.16725 | 127.80439 | 5770 ft | 266 kts | 205° |
| 2026-04-18 06:46 | 26.15034 | 127.79598 | 5398 ft | 267 kts | 206° |
| 2026-04-18 06:46 | 26.13336 | 127.78745 | 5142 ft | 269 kts | 206° |
| 2026-04-18 06:46 | 26.11631 | 127.77893 | 4757 ft | 267 kts | 207° |
| 2026-04-18 06:47 | 26.10507 | 127.77323 | 4481 ft | 267 kts | 207° |
| 2026-04-18 06:47 | 26.08262 | 127.76181 | 4036 ft | 262 kts | 207° |
| 2026-04-18 06:47 | 26.07188 | 127.75619 | 3891 ft | 256 kts | 210° |
| 2026-04-18 06:47 | 26.05470 | 127.73977 | 3707 ft | 236 kts | 243° |
| 2026-04-18 06:48 | 26.05086 | 127.72878 | 3630 ft | 227 kts | 260° |
| 2026-04-18 06:48 | 26.04892 | 127.71161 | 3435 ft | 221 kts | 267° |
| 2026-04-18 06:48 | 26.04817 | 127.69486 | 3272 ft | 215 kts | 268° |
| 2026-04-18 06:48 | 26.04761 | 127.67845 | 2946 ft | 211 kts | 268° |
| 2026-04-18 06:49 | 26.04796 | 127.66235 | 2571 ft | 204 kts | 280° |
| 2026-04-18 06:49 | 26.05336 | 127.64852 | 2344 ft | 191 kts | 309° |
| 2026-04-18 06:49 | 26.06359 | 127.64017 | 2103 ft | 178 kts | 340° |
| 2026-04-18 06:49 | 26.07502 | 127.63781 | 2012 ft | 157 kts | 354° |
| 2026-04-18 06:50 | 26.08546 | 127.63726 | 1974 ft | 150 kts | 355° |
| 2026-04-18 06:50 | 26.09577 | 127.63700 | 1866 ft | 148 kts | 356° |
| 2026-04-18 06:50 | 26.10607 | 127.63697 | 1539 ft | 151 kts | 359° |
| 2026-04-18 06:50 | 26.11665 | 127.63682 | 1230 ft | 147 kts | 358° |
| 2026-04-18 06:51 | 26.12653 | 127.63609 | 1034 ft | 138 kts | 354° |
| 2026-04-18 06:51 | 26.13588 | 127.63527 | 857 ft | 132 kts | 357° |
| 2026-04-18 06:51 | 26.14471 | 127.63511 | 700 ft | 125 kts | 359° |
| 2026-04-18 06:51 | 26.15331 | 127.63479 | 556 ft | 123 kts | 355° |
| 2026-04-18 06:52 | 26.16184 | 127.63434 | 396 ft | 123 kts | 353° |
| 2026-04-18 06:52 | 26.17039 | 127.63391 | 236 ft | 123 kts | 355° |
| 2026-04-18 06:52 | 26.17888 | 127.63365 | 69 ft | 121 kts | 355° |
| 2026-04-18 06:52 | 26.18662 | 127.63320 | 32 ft | 95 kts | 358° |
| 2026-04-18 06:53 | 26.19146 | 127.63300 | 31 ft | 43 kts | 355° |
| 2026-04-18 06:53 | 26.19378 | 127.63313 | 33 ft | 30 kts | 17° |
| 2026-04-18 06:53 | 26.19546 | 127.63399 | 34 ft | 25 kts | 28° |
| 2026-04-18 06:53 | 26.19692 | 127.63460 | 33 ft | 20 kts | 4° |
| 2026-04-18 06:54 | 26.19818 | 127.63458 | 33 ft | 17 kts | 359° |
| 2026-04-18 06:54 | 26.19926 | 127.63452 | 33 ft | 14 kts | 356° |
| 2026-04-18 06:54 | 26.20020 | 127.63447 | 33 ft | 12 kts | 358° |
| 2026-04-18 06:54 | 26.20099 | 127.63444 | 33 ft | 11 kts | 358° |
| 2026-04-18 06:55 | 26.20169 | 127.63444 | 33 ft | 9 kts | 7° |
| 2026-04-18 06:55 | 26.20209 | 127.63485 | 33 ft | 7 kts | 63° |
| 2026-04-18 06:55 | 26.20216 | 127.63535 | 33 ft | 6 kts | 86° |
| 2026-04-18 06:55 | 26.20218 | 127.63576 | 33 ft | 5 kts | 87° |
| 2026-04-18 06:56 | 26.20219 | 127.63608 | 33 ft | 4 kts | 88° |
| 2026-04-18 06:56 | 26.20220 | 127.63633 | 33 ft | 3 kts | 88° |
| 2026-04-18 06:56 | 26.20220 | 127.63651 | 33 ft | 2 kts | 89° |
| 2026-04-18 06:56 | 26.20221 | 127.63661 | 33 ft | 1 kts | 88° |
| 2026-04-18 06:57 | 26.20221 | 127.63685 | 33 ft | 3 kts | 89° |
| 2026-04-18 06:57 | 26.20222 | 127.63723 | 33 ft | 2 kts | 89° |
| 2026-04-18 06:57 | 26.20222 | 127.63732 | 33 ft | 1 kts | 89° |
| 2026-04-18 06:58 | 26.20225 | 127.63788 | 33 ft | 14 kts | 86° |
| 2026-04-18 06:58 | 26.20232 | 127.63944 | 33 ft | 26 kts | 87° |
| 2026-04-18 06:58 | 26.20247 | 127.64143 | 33 ft | 25 kts | 91° |
| 2026-04-18 06:58 | 26.20277 | 127.64308 | 33 ft | 16 kts | 34° |
| 2026-04-18 06:59 | 26.20373 | 127.64318 | 33 ft | 12 kts | 359° |
| 2026-04-18 06:59 | 26.20450 | 127.64314 | 33 ft | 10 kts | 357° |
| 2026-04-18 06:59 | 26.20521 | 127.64311 | 33 ft | 11 kts | 359° |
| 2026-04-18 06:59 | 26.20605 | 127.64325 | 33 ft | 13 kts | 11° |
| 2026-04-18 07:00 | 26.20700 | 127.64346 | 33 ft | 15 kts | 11° |
| 2026-04-18 07:00 | 26.20805 | 127.64375 | 33 ft | 16 kts | 12° |
| 2026-04-18 07:00 | 26.20910 | 127.64424 | 32 ft | 18 kts | 37° |
| 2026-04-18 07:00 | 26.20964 | 127.64554 | 31 ft | 20 kts | 75° |
| 2026-04-18 07:01 | 26.20988 | 127.64703 | 32 ft | 19 kts | 66° |
| 2026-04-18 07:01 | 26.21091 | 127.64748 | 32 ft | 17 kts | 360° |
| 2026-04-18 07:01 | 26.21210 | 127.64744 | 32 ft | 18 kts | 358° |
| 2026-04-18 07:01 | 26.21335 | 127.64739 | 32 ft | 19 kts | 358° |
| 2026-04-18 07:02 | 26.21462 | 127.64770 | 32 ft | 19 kts | 41° |
| 2026-04-18 07:02 | 26.21561 | 127.64875 | 32 ft | 20 kts | 43° |
| 2026-04-18 07:02 | 26.21641 | 127.65007 | 32 ft | 22 kts | 71° |
| 2026-04-18 07:02 | 26.21698 | 127.65165 | 32 ft | 22 kts | 68° |
| 2026-04-18 07:03 | 26.21694 | 127.65278 | 32 ft | 6 kts | 142° |
| 2026-04-18 07:03 | 26.21685 | 127.65286 | 32 ft | 1 kts | 145° |
| 2026-04-18 07:03 | 26.21677 | 127.65290 | 32 ft | 0 kts | 155° |
| 2026-04-18 07:03 | 26.21679 | 127.65289 | 32 ft | 1 kts | 156° |
| 2026-04-18 07:04 | 26.21689 | 127.65284 | 32 ft | 0 kts | 169° |
| 2026-04-18 07:04 | 26.21682 | 127.65287 | 32 ft | 1 kts | 160° |
| 2026-04-18 07:04 | 26.21671 | 127.65294 | 32 ft | 1 kts | 155° |
| 2026-04-18 07:04 | 26.21676 | 127.65291 | 32 ft | 2 kts | 156° |
| 2026-04-18 07:05 | 26.21678 | 127.65290 | 32 ft | 0 kts | 156° |